createdAt,value
2022-11-24T00:02:03.723Z,7.27
2022-11-24T00:04:32.435Z,1.60
2022-11-24T00:07:01.078Z,0.60
2022-11-24T00:09:30.001Z,1.07
2022-11-24T00:12:01.319Z,4.70
2022-11-24T00:14:29.699Z,0.90
2022-11-24T00:16:58.489Z,1.47
2022-11-24T00:19:26.873Z,1.53
2022-11-24T00:21:55.260Z,1.53
2022-11-24T00:24:23.717Z,0.77
2022-11-24T00:26:52.025Z,1.33
2022-11-24T00:29:23.157Z,2.10
2022-11-24T00:31:51.689Z,3.53
2022-11-24T00:34:20.152Z,1.20
2022-11-24T00:36:48.551Z,0.97
2022-11-24T00:39:17.316Z,2.90
2022-11-24T00:41:49.516Z,3.60
2022-11-24T00:44:20.429Z,6.77
2022-11-24T00:46:50.498Z,2.60
2022-11-24T00:49:18.924Z,0.77
2022-11-24T00:51:47.438Z,5.30
2022-11-24T00:54:16.137Z,3.20
2022-11-24T00:56:44.435Z,1.07
2022-11-24T00:59:13.055Z,3.60
2022-11-24T01:01:42.078Z,2.23
2022-11-24T01:04:11.866Z,2.87
2022-11-24T01:06:40.191Z,1.40
2022-11-24T01:09:08.840Z,4.40
2022-11-24T01:11:51.119Z,3.80
2022-11-24T01:14:19.933Z,3.87
2022-11-24T01:16:48.501Z,1.57
2022-11-24T01:19:18.556Z,2.60
2022-11-24T01:21:47.078Z,4.83
2022-11-24T01:24:15.892Z,2.50
2022-11-24T01:26:44.280Z,1.50
2022-11-24T01:29:13.567Z,6.13
2022-11-24T01:31:41.953Z,5.60
2022-11-24T01:34:10.295Z,2.03
2022-11-24T01:36:40.005Z,4.73
2022-11-24T01:39:08.445Z,2.77
2022-11-24T01:41:36.920Z,3.37
2022-11-24T01:44:21.420Z,2.63
2022-11-24T01:46:53.476Z,3.23
2022-11-24T01:49:26.108Z,3.90
2022-11-24T01:52:00.824Z,2.43
2022-11-24T01:54:32.306Z,5.43
2022-11-24T01:57:08.924Z,3.10
2022-11-24T01:59:38.180Z,3.10
2022-11-24T02:02:07.212Z,1.33
2022-11-24T02:04:37.070Z,2.20
2022-11-24T02:07:08.393Z,3.07
2022-11-24T02:09:44.491Z,3.23
2022-11-24T02:12:12.855Z,1.67
2022-11-24T02:14:42.925Z,4.37
2022-11-24T02:17:11.623Z,1.63
2022-11-24T02:19:49.216Z,3.63
2022-11-24T02:22:26.713Z,4.90
2022-11-24T02:25:03.610Z,5.33
2022-11-24T02:27:33.387Z,2.73
2022-11-24T02:30:01.928Z,3.30
2022-11-24T02:32:32.535Z,4.17
2022-11-24T02:35:02.472Z,3.80
2022-11-24T02:37:30.887Z,2.53
2022-11-24T02:39:59.160Z,3.63
2022-11-24T02:42:29.739Z,1.70
2022-11-24T02:45:01.720Z,2.67
2022-11-24T02:47:30.104Z,2.57
2022-11-24T02:49:58.451Z,2.50
2022-11-24T02:52:26.693Z,0.33
2022-11-24T02:54:55.047Z,2.87
2022-11-24T02:57:23.840Z,1.63
2022-11-24T02:59:52.172Z,0.60
2022-11-24T03:02:22.038Z,1.30
2022-11-24T03:04:50.424Z,2.73
2022-11-24T03:07:19.216Z,2.33
2022-11-24T03:09:47.620Z,1.67
2022-11-24T03:12:15.988Z,2.03
2022-11-24T03:14:45.504Z,2.03
2022-11-24T03:17:13.921Z,1.03
2022-11-24T03:19:43.660Z,2.30
2022-11-24T03:22:13.475Z,2.03
2022-11-24T03:24:41.763Z,0.60
2022-11-24T03:27:11.349Z,0.50
2022-11-24T03:29:39.634Z,1.17
2022-11-24T03:32:08.118Z,3.50
2022-11-24T03:34:36.489Z,1.23
2022-11-24T03:37:06.277Z,2.43
2022-11-24T03:39:34.657Z,1.90
2022-11-24T03:42:03.214Z,0.80
2022-11-24T03:44:31.710Z,0.97
2022-11-24T03:47:00.195Z,2.67
2022-11-24T03:49:28.563Z,3.17
2022-11-24T03:51:56.858Z,3.13
2022-11-24T03:54:26.673Z,3.93
2022-11-24T03:56:55.087Z,3.13
2022-11-24T03:59:23.497Z,2.63
2022-11-24T04:01:51.887Z,1.23
2022-11-24T04:04:20.238Z,5.43
2022-11-24T04:06:48.588Z,1.13
2022-11-24T04:09:17.321Z,0.50
2022-11-24T04:12:04.584Z,3.23
2022-11-24T04:14:33.407Z,2.43
2022-11-24T04:17:01.942Z,2.73
2022-11-24T04:19:30.223Z,1.77
2022-11-24T04:21:58.668Z,2.40
2022-11-24T04:24:26.965Z,3.73
2022-11-24T04:26:56.730Z,2.17
2022-11-24T04:29:25.038Z,1.70
2022-11-24T04:31:53.312Z,1.70
2022-11-24T04:34:21.811Z,1.97
2022-11-24T04:36:50.158Z,2.97
2022-11-24T04:39:23.809Z,5.97
2022-11-24T04:41:55.936Z,2.07
2022-11-24T04:44:24.251Z,6.20
2022-11-24T04:46:52.579Z,1.73
2022-11-24T04:49:21.225Z,2.53
2022-11-24T04:51:54.760Z,3.20
2022-11-24T04:54:23.141Z,2.07
2022-11-24T04:56:52.631Z,2.43
2022-11-24T04:59:22.322Z,3.30
2022-11-24T05:01:50.846Z,0.23
2022-11-24T05:04:21.332Z,1.10
2022-11-24T05:06:49.674Z,6.23
2022-11-24T05:09:19.105Z,1.47
2022-11-24T05:11:47.605Z,2.80
2022-11-24T05:14:15.926Z,1.37
2022-11-24T05:16:45.677Z,0.13
2022-11-24T05:19:14.155Z,2.03
2022-11-24T05:21:42.600Z,1.97
2022-11-24T05:24:11.645Z,3.27
2022-11-24T05:26:40.218Z,5.30
2022-11-24T05:29:08.551Z,2.00
2022-11-24T05:31:36.885Z,0.83
2022-11-24T05:34:06.669Z,2.80
2022-11-24T05:36:52.650Z,0.60
2022-11-24T05:39:21.062Z,0.47
2022-11-24T05:41:49.374Z,2.13
2022-11-24T05:44:17.790Z,0.50
2022-11-24T05:46:46.140Z,1.27
2022-11-24T05:49:15.931Z,0.60
2022-11-24T05:51:44.215Z,2.53
2022-11-24T05:54:12.567Z,3.30
2022-11-24T05:56:40.841Z,4.07
2022-11-24T05:59:10.098Z,2.27
2022-11-24T06:01:38.735Z,1.83
2022-11-24T06:04:07.044Z,2.13
2022-11-24T06:06:37.175Z,1.97
2022-11-24T06:09:05.938Z,6.90
2022-11-24T06:11:34.436Z,3.47
2022-11-24T06:14:05.783Z,3.87
2022-11-24T06:16:38.261Z,4.00
2022-11-24T06:19:07.090Z,1.70
2022-11-24T06:21:37.827Z,3.27
2022-11-24T06:24:06.760Z,3.53
2022-11-24T06:26:35.089Z,3.13
2022-11-24T06:29:03.430Z,3.73
2022-11-24T06:31:31.799Z,1.23
2022-11-24T06:34:01.697Z,3.93
2022-11-24T06:36:30.077Z,2.50
2022-11-24T06:39:02.725Z,0.80
2022-11-24T06:41:31.060Z,2.43
2022-11-24T06:43:59.412Z,4.57
2022-11-24T06:46:28.043Z,1.50
2022-11-24T06:48:56.357Z,2.90
2022-11-24T06:51:25.939Z,2.37
2022-11-24T06:53:54.524Z,2.07
2022-11-24T06:56:24.261Z,4.23
2022-11-24T06:58:54.161Z,1.40
2022-11-24T07:01:25.505Z,7.23
2022-11-24T07:03:55.229Z,3.40
2022-11-24T07:06:25.946Z,2.30
2022-11-24T07:08:54.325Z,4.03
2022-11-24T07:11:25.209Z,3.20
2022-11-24T07:13:58.306Z,2.10
2022-11-24T07:16:29.144Z,3.47
2022-11-24T07:18:58.030Z,3.07
2022-11-24T07:21:27.294Z,1.83
2022-11-24T07:23:57.074Z,2.03
2022-11-24T07:26:27.179Z,3.27
2022-11-24T07:28:55.568Z,1.70
2022-11-24T07:31:26.602Z,1.30
2022-11-24T07:33:56.220Z,0.70
2022-11-24T07:36:25.186Z,3.40
2022-11-24T07:38:53.566Z,1.33
2022-11-24T07:41:22.114Z,2.53
2022-11-24T07:43:52.187Z,3.63
2022-11-24T07:46:21.330Z,4.70
2022-11-24T07:48:49.814Z,2.93
2022-11-24T07:51:18.364Z,2.37
2022-11-24T07:53:47.017Z,4.17
2022-11-24T07:56:15.434Z,2.30
2022-11-24T07:58:48.297Z,10.23
2022-11-24T08:01:22.341Z,3.43
2022-11-24T08:03:50.752Z,3.17
2022-11-24T08:06:26.039Z,1.77
2022-11-24T08:08:57.758Z,2.97
2022-11-24T08:11:26.736Z,3.03
2022-11-24T08:13:55.110Z,2.83
2022-11-24T08:16:24.859Z,2.63
2022-11-24T08:18:55.402Z,2.30
2022-11-24T08:21:24.659Z,5.53
2022-11-24T08:23:56.130Z,4.10
2022-11-24T08:26:25.428Z,3.83
2022-11-24T08:28:56.331Z,3.70
2022-11-24T08:31:32.678Z,3.10
2022-11-24T08:34:02.239Z,2.53
2022-11-24T08:36:30.634Z,2.70
2022-11-24T08:39:00.407Z,3.20
2022-11-24T08:41:30.056Z,4.30
2022-11-24T08:43:58.864Z,5.27
2022-11-24T08:46:28.783Z,3.20
2022-11-24T08:48:57.322Z,2.93
2022-11-24T08:51:27.853Z,4.10
2022-11-24T08:53:58.357Z,4.50
2022-11-24T08:56:28.078Z,3.03
2022-11-24T08:58:57.141Z,2.93
2022-11-24T09:01:27.071Z,3.60
2022-11-24T09:03:56.996Z,3.33
2022-11-24T09:06:27.116Z,3.83
2022-11-24T09:08:55.846Z,4.57
2022-11-24T09:11:25.816Z,2.50
2022-11-24T09:13:54.596Z,7.17
2022-11-24T09:16:25.867Z,3.23
2022-11-24T09:19:00.527Z,2.73
2022-11-24T09:21:29.539Z,3.20
2022-11-24T09:23:58.615Z,2.40
2022-11-24T09:26:29.287Z,2.57
2022-11-24T09:28:59.248Z,2.43
2022-11-24T09:31:30.110Z,5.37
2022-11-24T09:34:00.571Z,3.90
2022-11-24T09:36:29.675Z,2.80
2022-11-24T09:38:58.052Z,2.23
2022-11-24T09:41:40.282Z,3.37
2022-11-24T09:44:18.280Z,3.10
2022-11-24T09:46:56.014Z,4.47
2022-11-24T09:49:34.659Z,3.40
2022-11-24T09:52:09.637Z,5.83
2022-11-24T09:54:47.708Z,2.70
2022-11-24T09:57:18.929Z,2.87
2022-11-24T09:59:47.264Z,2.30
2022-11-24T10:02:15.768Z,4.30
2022-11-24T10:04:47.514Z,2.50
2022-11-24T10:07:23.991Z,4.83
2022-11-24T10:10:03.192Z,3.07
2022-11-24T10:12:50.234Z,4.50
2022-11-24T10:15:28.037Z,2.43
2022-11-24T10:18:16.931Z,3.07
2022-11-24T10:21:00.379Z,2.43
2022-11-24T10:23:43.754Z,3.30
2022-11-24T10:26:32.690Z,4.07
2022-11-24T10:29:01.834Z,6.33
2022-11-24T10:31:33.979Z,14.60
2022-11-24T10:34:10.648Z,5.67
2022-11-24T10:36:47.030Z,3.63
2022-11-24T10:39:21.554Z,2.60
2022-11-24T10:41:55.465Z,3.10
2022-11-24T10:44:23.859Z,3.80
2022-11-24T10:46:52.809Z,4.73
2022-11-24T10:49:26.157Z,4.77
2022-11-24T10:52:05.869Z,3.80
2022-11-24T10:54:36.088Z,4.37
2022-11-24T10:57:04.725Z,5.13
2022-11-24T10:59:37.258Z,2.30
2022-11-24T11:02:29.937Z,2.50
2022-11-24T11:04:58.621Z,3.00
2022-11-24T11:07:28.692Z,6.77
2022-11-24T11:10:20.158Z,4.60
2022-11-24T11:12:48.651Z,7.73
2022-11-24T11:15:24.874Z,3.03
2022-11-24T11:17:57.410Z,3.13
2022-11-24T11:20:30.449Z,2.77
2022-11-24T11:23:02.856Z,3.50
2022-11-24T11:25:34.156Z,4.50
2022-11-24T11:28:27.900Z,5.23
2022-11-24T11:31:18.118Z,9.10
2022-11-24T11:34:03.815Z,16.17
2022-11-24T11:36:34.465Z,21.57
2022-11-24T11:39:04.849Z,19.13
2022-11-24T11:41:37.268Z,25.87
2022-11-24T11:44:28.773Z,11.50
2022-11-24T11:47:00.067Z,9.43
2022-11-24T11:49:28.615Z,3.13
2022-11-24T11:52:16.373Z,7.13
2022-11-24T11:55:08.363Z,4.43
2022-11-24T11:57:49.021Z,5.67
2022-11-24T12:00:21.943Z,4.27
2022-11-24T12:03:06.153Z,0.87
2022-11-24T12:05:49.518Z,1.87
2022-11-24T12:08:29.433Z,4.60
2022-11-24T12:11:07.240Z,2.93
2022-11-24T12:13:45.170Z,2.73
2022-11-24T12:16:27.682Z,3.87
2022-11-24T12:19:05.609Z,2.73
2022-11-24T12:21:43.344Z,2.53
2022-11-24T12:24:18.922Z,2.73
2022-11-24T12:26:54.348Z,3.63
2022-11-24T12:29:47.090Z,3.00
2022-11-24T12:32:30.722Z,2.00
2022-11-24T12:35:09.950Z,5.63
2022-11-24T12:37:52.164Z,5.37
2022-11-24T12:40:33.036Z,5.23
2022-11-24T12:43:14.338Z,6.20
2022-11-24T12:46:02.768Z,6.13
2022-11-24T12:48:46.573Z,1.97
2022-11-24T12:51:18.727Z,5.87
2022-11-24T12:53:49.532Z,2.17
2022-11-24T12:56:25.142Z,1.50
2022-11-24T12:59:02.748Z,2.07
2022-11-24T13:01:37.187Z,4.70
2022-11-24T13:04:13.884Z,7.40
2022-11-24T13:06:52.072Z,5.17
2022-11-24T13:09:20.865Z,7.13
2022-11-24T13:11:50.393Z,7.37
2022-11-24T13:14:24.680Z,6.43
2022-11-24T13:17:29.306Z,14.20
2022-11-24T13:19:47.704Z,16.10
2022-11-24T13:22:19.612Z,16.20
2022-11-24T13:25:13.669Z,46.07
2022-11-24T13:27:44.967Z,5.40
2022-11-24T13:30:50.089Z,3.43
2022-11-24T13:33:35.560Z,2.30
2022-11-24T13:36:31.975Z,10.03
2022-11-24T13:39:02.028Z,7.43
2022-11-24T13:42:41.182Z,5.50
2022-11-24T13:45:03.121Z,5.07
2022-11-24T13:47:39.369Z,6.37
2022-11-24T13:50:14.971Z,6.17
2022-11-24T13:52:49.716Z,5.40
2022-11-24T13:55:29.383Z,4.43
2022-11-24T13:58:22.625Z,4.00
2022-11-24T14:01:06.730Z,6.43
2022-11-24T14:03:37.529Z,5.17
2022-11-24T14:06:07.600Z,4.67
2022-11-24T14:08:39.472Z,3.67
2022-11-24T14:11:15.589Z,7.40
2022-11-24T14:13:43.976Z,6.43
2022-11-24T14:16:17.355Z,5.87
2022-11-24T14:18:47.769Z,9.60
2022-11-24T14:21:29.273Z,7.23
2022-11-24T14:24:01.065Z,4.70
2022-11-24T14:26:34.266Z,4.90
2022-11-24T14:29:07.289Z,4.53
2022-11-24T14:31:35.707Z,5.53
2022-11-24T14:34:19.334Z,8.27
2022-11-24T14:36:49.366Z,7.17
2022-11-24T14:39:19.504Z,8.90
2022-11-24T14:41:53.398Z,13.50
2022-11-24T14:44:25.130Z,10.60
2022-11-24T14:47:06.691Z,14.33
2022-11-24T14:49:35.738Z,9.67
2022-11-24T14:52:13.531Z,8.97
2022-11-24T14:54:48.869Z,9.43
2022-11-24T14:57:31.788Z,6.37
2022-11-24T15:00:16.972Z,7.17
2022-11-24T15:02:48.498Z,3.97
2022-11-24T15:05:17.442Z,3.33
2022-11-24T15:07:49.305Z,1.80
2022-11-24T15:10:33.811Z,2.63
2022-11-24T15:13:05.341Z,2.53
2022-11-24T15:15:36.417Z,1.37
2022-11-24T15:18:07.118Z,0.63
2022-11-24T15:20:38.273Z,1.70
2022-11-24T15:23:24.878Z,2.97
2022-11-24T15:25:54.342Z,2.53
2022-11-24T15:28:26.124Z,15.90
2022-11-24T15:30:55.360Z,5.77
2022-11-24T15:33:24.710Z,5.90
2022-11-24T15:35:53.424Z,2.17
2022-11-24T15:38:23.924Z,13.83
2022-11-24T15:40:54.437Z,12.53
2022-11-24T15:43:36.624Z,3.53
2022-11-24T15:46:06.073Z,4.40
2022-11-24T15:48:34.905Z,3.90
2022-11-24T15:51:05.324Z,5.67
2022-11-24T15:53:38.989Z,7.87
2022-11-24T15:56:09.743Z,6.80
2022-11-24T15:58:38.103Z,8.83
2022-11-24T16:01:06.617Z,6.27
2022-11-24T16:03:50.417Z,8.60
2022-11-24T16:06:25.061Z,11.83
2022-11-24T16:08:55.693Z,9.33
2022-11-24T16:11:24.276Z,22.93
2022-11-24T16:13:54.255Z,16.30
2022-11-24T16:16:24.964Z,26.50
2022-11-24T16:18:53.910Z,8.00
2022-11-24T16:21:22.201Z,5.23
2022-11-24T16:23:50.548Z,9.30
2022-11-24T16:26:20.326Z,7.00
2022-11-24T16:28:48.643Z,5.83
2022-11-24T16:31:18.007Z,6.43
2022-11-24T16:33:46.897Z,6.80
2022-11-24T16:36:15.558Z,5.27
2022-11-24T16:38:43.904Z,4.70
2022-11-24T16:41:12.569Z,4.77
2022-11-24T16:43:42.367Z,6.53
2022-11-24T16:46:21.507Z,10.27
2022-11-24T16:48:51.750Z,9.40
2022-11-24T16:51:21.735Z,8.03
2022-11-24T16:53:57.478Z,9.53
2022-11-24T16:56:25.927Z,8.03
2022-11-24T16:58:56.170Z,9.33
2022-11-24T17:01:25.894Z,8.87
2022-11-24T17:03:54.427Z,6.03
2022-11-24T17:06:23.483Z,12.97
2022-11-24T17:08:51.794Z,12.13
2022-11-24T17:11:21.571Z,10.37
2022-11-24T17:13:50.168Z,12.03
2022-11-24T17:16:21.536Z,12.77
2022-11-24T17:18:50.379Z,11.60
2022-11-24T17:21:20.597Z,12.30
2022-11-24T17:23:49.318Z,10.10
2022-11-24T17:26:18.945Z,9.57
2022-11-24T17:28:47.327Z,9.70
2022-11-24T17:31:21.990Z,7.33
2022-11-24T17:33:50.624Z,5.77
2022-11-24T17:36:19.012Z,6.13
2022-11-24T17:38:49.514Z,3.73
2022-11-24T17:41:18.367Z,3.73
2022-11-24T17:43:50.301Z,5.60
2022-11-24T17:46:20.437Z,7.40
2022-11-24T17:48:48.817Z,8.10
2022-11-24T17:51:19.550Z,17.27
2022-11-24T17:53:50.493Z,7.47
2022-11-24T17:56:20.157Z,4.13
2022-11-24T17:58:49.399Z,4.80
2022-11-24T18:01:17.932Z,6.23
2022-11-24T18:03:51.927Z,8.03
2022-11-24T18:06:24.967Z,4.07
2022-11-24T18:08:55.080Z,5.30
2022-11-24T18:11:30.635Z,4.77
2022-11-24T18:14:02.387Z,5.20
2022-11-24T18:16:32.669Z,6.97
2022-11-24T18:19:09.184Z,11.50
2022-11-24T18:21:38.852Z,8.87
2022-11-24T18:24:08.075Z,5.87
2022-11-24T18:26:36.641Z,4.73
2022-11-24T18:29:05.599Z,5.53
2022-11-24T18:31:35.529Z,6.47
2022-11-24T18:34:07.134Z,4.57
2022-11-24T18:36:35.993Z,7.97
2022-11-24T18:39:05.612Z,4.60
2022-11-24T18:41:34.064Z,7.50
2022-11-24T18:44:03.443Z,11.37
2022-11-24T18:46:31.823Z,9.80
2022-11-24T18:49:00.258Z,5.47
2022-11-24T18:51:30.291Z,5.33
2022-11-24T18:53:58.960Z,7.17
2022-11-24T18:56:28.010Z,7.80
2022-11-24T18:58:57.610Z,6.37
2022-11-24T19:01:27.960Z,6.60
2022-11-24T19:03:58.619Z,6.57
2022-11-24T19:06:32.302Z,6.30
2022-11-24T19:09:03.176Z,6.13
2022-11-24T19:11:33.755Z,6.93
2022-11-24T19:14:03.317Z,5.67
2022-11-24T19:16:31.888Z,8.07
2022-11-24T19:19:02.438Z,6.53
2022-11-24T19:21:35.407Z,7.40
2022-11-24T19:24:05.694Z,7.53
2022-11-24T19:26:35.914Z,7.00
2022-11-24T19:29:05.575Z,5.97
2022-11-24T19:31:34.868Z,17.60
2022-11-24T19:34:05.369Z,13.10
2022-11-24T19:36:43.756Z,8.23
2022-11-24T19:39:15.657Z,8.17
2022-11-24T19:41:44.064Z,8.67
2022-11-24T19:44:13.427Z,6.33
2022-11-24T19:46:41.841Z,6.40
2022-11-24T19:49:10.189Z,7.60
2022-11-24T19:51:40.767Z,6.47
2022-11-24T19:54:15.409Z,8.20
2022-11-24T19:56:43.953Z,7.73
2022-11-24T19:59:20.673Z,8.57
2022-11-24T20:01:49.373Z,6.27
2022-11-24T20:04:20.466Z,8.20
2022-11-24T20:06:48.849Z,7.87
2022-11-24T20:09:20.468Z,6.83
2022-11-24T20:11:49.745Z,6.47
2022-11-24T20:14:19.591Z,8.90
2022-11-24T20:16:48.131Z,6.83
2022-11-24T20:19:19.889Z,7.70
2022-11-24T20:21:50.013Z,9.93
2022-11-24T20:24:22.293Z,7.10
2022-11-24T20:26:52.677Z,6.10
2022-11-24T20:29:21.439Z,7.87
2022-11-24T20:31:51.788Z,8.60
2022-11-24T20:34:21.171Z,7.60
2022-11-24T20:36:49.742Z,6.80
2022-11-24T20:39:21.401Z,6.60
2022-11-24T20:41:50.180Z,27.67
2022-11-24T20:44:21.329Z,20.80
2022-11-24T20:46:50.444Z,9.13
2022-11-24T20:49:21.881Z,8.23
2022-11-24T20:51:54.584Z,6.90
2022-11-24T20:54:24.663Z,7.63
2022-11-24T20:56:53.019Z,7.97
2022-11-24T20:59:23.615Z,7.63
2022-11-24T21:01:55.055Z,8.80
2022-11-24T21:04:25.865Z,6.93
2022-11-24T21:06:54.672Z,8.90
2022-11-24T21:09:24.825Z,7.73
2022-11-24T21:11:53.332Z,8.77
2022-11-24T21:14:21.784Z,7.77
2022-11-24T21:16:50.100Z,7.17
2022-11-24T21:19:19.229Z,6.97
2022-11-24T21:21:48.696Z,8.27
2022-11-24T21:24:18.800Z,10.13
2022-11-24T21:26:49.189Z,5.90
2022-11-24T21:29:20.242Z,9.63
2022-11-24T21:31:48.909Z,8.57
2022-11-24T21:34:19.495Z,9.67
2022-11-24T21:36:48.167Z,7.87
2022-11-24T21:39:17.553Z,6.30
2022-11-24T21:41:46.129Z,6.73
2022-11-24T21:44:15.948Z,8.03
2022-11-24T21:46:49.582Z,8.53
2022-11-24T21:49:19.622Z,9.63
2022-11-24T21:51:49.800Z,8.03
2022-11-24T21:54:18.206Z,6.90
2022-11-24T21:56:46.715Z,7.83
2022-11-24T21:59:16.445Z,6.03
2022-11-24T22:01:44.826Z,9.20
2022-11-24T22:04:13.105Z,7.73
2022-11-24T22:06:41.706Z,7.87
2022-11-24T22:09:16.356Z,6.40
2022-11-24T22:11:46.808Z,7.07
2022-11-24T22:14:16.553Z,8.13
2022-11-24T22:16:45.005Z,11.97
2022-11-24T22:19:13.497Z,6.80
2022-11-24T22:21:41.878Z,7.73
2022-11-24T22:24:10.413Z,6.40
2022-11-24T22:26:38.977Z,9.07
2022-11-24T22:29:08.352Z,7.13
2022-11-24T22:31:38.477Z,7.73
2022-11-24T22:34:07.008Z,12.50
2022-11-24T22:36:36.646Z,11.50
2022-11-24T22:39:07.049Z,6.93
2022-11-24T22:41:36.698Z,7.10
2022-11-24T22:44:05.737Z,7.20
2022-11-24T22:46:34.076Z,6.83
2022-11-24T22:49:07.370Z,8.20
2022-11-24T22:51:36.056Z,7.20
2022-11-24T22:54:05.720Z,7.07
2022-11-24T22:56:35.013Z,7.83
2022-11-24T22:59:05.409Z,6.63
2022-11-24T23:01:34.754Z,7.20
2022-11-24T23:04:05.118Z,7.83
2022-11-24T23:06:34.508Z,9.07
2022-11-24T23:09:04.674Z,7.37
2022-11-24T23:11:38.108Z,6.77
2022-11-24T23:14:08.628Z,7.90
2022-11-24T23:16:37.100Z,8.53
2022-11-24T23:19:07.071Z,6.00
2022-11-24T23:21:38.622Z,9.30
2022-11-24T23:24:08.524Z,7.53
2022-11-24T23:26:38.913Z,7.33
2022-11-24T23:29:07.897Z,8.20
2022-11-24T23:31:39.666Z,7.23
2022-11-24T23:34:09.909Z,6.03
2022-11-24T23:36:38.397Z,6.50
2022-11-24T23:39:09.295Z,7.20
2022-11-24T23:41:38.161Z,5.43
2022-11-24T23:44:07.046Z,7.80
2022-11-24T23:46:35.996Z,6.33
2022-11-24T23:49:04.732Z,8.70
2022-11-24T23:51:34.737Z,6.67
2022-11-24T23:54:03.227Z,8.90
2022-11-24T23:56:33.624Z,8.27
2022-11-24T23:59:03.280Z,6.47
